aviador You're here:

UBBG Decoded Metar

GYANDZHA in RUSSIA
Report Time2018-06-25 01:30:00
UTC Time2018-06-25 02:05:10
Flight Rules vfr VFR
Wind200° at 04 kt
W.Decomp.*RWY 12: 1.0 kt HW 3.9 kt RCW
W.Rank200° ranks 16
Current wind is below 200° avg. (5.6)
Visibility9999 m
Phenomena:N/A
Clouds:Scattered 100 Hf
Expected CloudBase > 2,400 ft AGL from Temp-Dew spread
CeilingNone
Temp22°C (ISA +9)
Dew Point16°C (69% RH)
QNH1014 hPa
Density Alt2,359 ft
Elevation1,083 ft
Report Wrong Elevation
Raw Report
UBBG 250130Z 20004KT 9999 SCT100 22/16 Q1014 R12/CLRD// NOSIG=

Extra information for UBBG:More info

Metar Taf Metar & Taf Last 4 Metars F.Rules Stats Wind Profile Meteogram Temp Stats Airport Information Weather charts Add Link Nearby VenuesMetar ALERT Operation Metar Decoded Social comments